sensor_id;sensor_type;location;lat;lon;timestamp;P1;durP1;ratioP1;P2;durP2;ratioP2
80229;SDS011;69540;42.136;24.742;2023-08-31T00:02:09;2.83;;;2.63;;
80229;SDS011;69540;42.136;24.742;2023-08-31T00:04:35;3.17;;;2.92;;
80229;SDS011;69540;42.136;24.742;2023-08-31T00:07:00;2.90;;;2.70;;
80229;SDS011;69540;42.136;24.742;2023-08-31T00:09:26;3.03;;;2.83;;
80229;SDS011;69540;42.136;24.742;2023-08-31T00:11:52;2.85;;;2.60;;
80229;SDS011;69540;42.136;24.742;2023-08-31T00:14:17;3.10;;;2.90;;
80229;SDS011;69540;42.136;24.742;2023-08-31T00:16:43;2.80;;;2.60;;
80229;SDS011;69540;42.136;24.742;2023-08-31T00:19:11;2.90;;;2.70;;
80229;SDS011;69540;42.136;24.742;2023-08-31T00:21:39;2.78;;;2.65;;
80229;SDS011;69540;42.136;24.742;2023-08-31T00:24:05;2.90;;;2.70;;
80229;SDS011;69540;42.136;24.742;2023-08-31T00:26:31;3.00;;;2.80;;
80229;SDS011;69540;42.136;24.742;2023-08-31T00:28:58;2.95;;;2.75;;
80229;SDS011;69540;42.136;24.742;2023-08-31T00:31:24;2.75;;;2.55;;
80229;SDS011;69540;42.136;24.742;2023-08-31T00:33:52;2.58;;;2.38;;
80229;SDS011;69540;42.136;24.742;2023-08-31T00:36:18;2.35;;;2.25;;
80229;SDS011;69540;42.136;24.742;2023-08-31T00:38:44;2.47;;;2.38;;
80229;SDS011;69540;42.136;24.742;2023-08-31T00:41:09;2.63;;;2.53;;
80229;SDS011;69540;42.136;24.742;2023-08-31T00:43:35;2.67;;;2.50;;
80229;SDS011;69540;42.136;24.742;2023-08-31T00:46:01;2.53;;;2.42;;
80229;SDS011;69540;42.136;24.742;2023-08-31T00:48:27;3.00;;;2.80;;
80229;SDS011;69540;42.136;24.742;2023-08-31T00:50:53;2.88;;;2.67;;
80229;SDS011;69540;42.136;24.742;2023-08-31T00:53:19;3.22;;;2.92;;
80229;SDS011;69540;42.136;24.742;2023-08-31T00:55:45;3.20;;;3.00;;
80229;SDS011;69540;42.136;24.742;2023-08-31T00:58:12;2.92;;;2.72;;
80229;SDS011;69540;42.136;24.742;2023-08-31T01:06:27;2.65;;;2.50;;
80229;SDS011;69540;42.136;24.742;2023-08-31T01:09:15;2.65;;;2.53;;
80229;SDS011;69540;42.136;24.742;2023-08-31T01:14:17;3.00;;;2.80;;
80229;SDS011;69540;42.136;24.742;2023-08-31T01:16:48;2.65;;;2.50;;
80229;SDS011;69540;42.136;24.742;2023-08-31T01:22:13;2.70;;;2.50;;
80229;SDS011;69540;42.136;24.742;2023-08-31T01:24:46;2.80;;;2.60;;
80229;SDS011;69540;42.136;24.742;2023-08-31T01:27:12;2.65;;;2.45;;
80229;SDS011;69540;42.136;24.742;2023-08-31T01:29:38;2.67;;;2.47;;
80229;SDS011;69540;42.136;24.742;2023-08-31T01:32:05;2.60;;;2.40;;
80229;SDS011;69540;42.136;24.742;2023-08-31T01:34:32;2.50;;;2.40;;
80229;SDS011;69540;42.136;24.742;2023-08-31T01:36:59;2.80;;;2.60;;
80229;SDS011;69540;42.136;24.742;2023-08-31T01:39:45;2.40;;;2.30;;
80229;SDS011;69540;42.136;24.742;2023-08-31T01:42:15;2.92;;;2.72;;
80229;SDS011;69540;42.136;24.742;2023-08-31T01:44:41;2.63;;;2.45;;
80229;SDS011;69540;42.136;24.742;2023-08-31T01:47:09;2.90;;;2.70;;
80229;SDS011;69540;42.136;24.742;2023-08-31T01:49:38;2.60;;;2.40;;
80229;SDS011;69540;42.136;24.742;2023-08-31T01:52:05;2.50;;;2.40;;
80229;SDS011;69540;42.136;24.742;2023-08-31T01:54:31;2.60;;;2.40;;
80229;SDS011;69540;42.136;24.742;2023-08-31T01:56:58;2.65;;;2.50;;
80229;SDS011;69540;42.136;24.742;2023-08-31T01:59:24;2.63;;;2.45;;
80229;SDS011;69540;42.136;24.742;2023-08-31T02:01:50;2.58;;;2.42;;
80229;SDS011;69540;42.136;24.742;2023-08-31T02:04:15;2.72;;;2.53;;
80229;SDS011;69540;42.136;24.742;2023-08-31T02:06:42;2.63;;;2.42;;
80229;SDS011;69540;42.136;24.742;2023-08-31T02:09:07;2.80;;;2.60;;
80229;SDS011;69540;42.136;24.742;2023-08-31T02:11:33;2.55;;;2.42;;
80229;SDS011;69540;42.136;24.742;2023-08-31T02:14:02;2.65;;;2.45;;
80229;SDS011;69540;42.136;24.742;2023-08-31T02:16:29;3.00;;;2.80;;
80229;SDS011;69540;42.136;24.742;2023-08-31T02:18:56;2.45;;;2.33;;
80229;SDS011;69540;42.136;24.742;2023-08-31T02:21:22;2.30;;;2.20;;
80229;SDS011;69540;42.136;24.742;2023-08-31T02:23:48;2.58;;;2.40;;
80229;SDS011;69540;42.136;24.742;2023-08-31T02:26:13;2.83;;;2.63;;
80229;SDS011;69540;42.136;24.742;2023-08-31T02:28:39;2.40;;;2.30;;
80229;SDS011;69540;42.136;24.742;2023-08-31T02:31:05;2.50;;;2.40;;
80229;SDS011;69540;42.136;24.742;2023-08-31T02:33:30;2.67;;;2.50;;
80229;SDS011;69540;42.136;24.742;2023-08-31T02:35:56;2.80;;;2.58;;
80229;SDS011;69540;42.136;24.742;2023-08-31T02:38:22;2.60;;;2.40;;
80229;SDS011;69540;42.136;24.742;2023-08-31T02:40:48;2.40;;;2.30;;
80229;SDS011;69540;42.136;24.742;2023-08-31T02:43:14;2.40;;;2.30;;
80229;SDS011;69540;42.136;24.742;2023-08-31T02:45:40;2.35;;;2.25;;
80229;SDS011;69540;42.136;24.742;2023-08-31T02:48:06;2.45;;;2.35;;
80229;SDS011;69540;42.136;24.742;2023-08-31T02:50:33;2.35;;;2.25;;
80229;SDS011;69540;42.136;24.742;2023-08-31T02:53:00;2.72;;;2.53;;
80229;SDS011;69540;42.136;24.742;2023-08-31T02:55:25;2.40;;;2.30;;
80229;SDS011;69540;42.136;24.742;2023-08-31T02:57:51;2.15;;;2.05;;
80229;SDS011;69540;42.136;24.742;2023-08-31T03:00:17;2.30;;;2.20;;
80229;SDS011;69540;42.136;24.742;2023-08-31T03:02:46;2.63;;;2.42;;
80229;SDS011;69540;42.136;24.742;2023-08-31T03:05:17;2.50;;;2.38;;
80229;SDS011;69540;42.136;24.742;2023-08-31T03:07:43;2.60;;;2.50;;
80229;SDS011;69540;42.136;24.742;2023-08-31T03:10:08;2.42;;;2.33;;
80229;SDS011;69540;42.136;24.742;2023-08-31T03:12:35;2.40;;;2.30;;
80229;SDS011;69540;42.136;24.742;2023-08-31T03:15:01;2.42;;;2.33;;
80229;SDS011;69540;42.136;24.742;2023-08-31T03:17:27;2.25;;;2.15;;
80229;SDS011;69540;42.136;24.742;2023-08-31T03:19:53;2.40;;;2.30;;
80229;SDS011;69540;42.136;24.742;2023-08-31T03:22:18;2.20;;;2.10;;
80229;SDS011;69540;42.136;24.742;2023-08-31T03:24:44;2.40;;;2.30;;
80229;SDS011;69540;42.136;24.742;2023-08-31T03:27:10;2.83;;;2.60;;
80229;SDS011;69540;42.136;24.742;2023-08-31T03:29:35;4.55;;;2.72;;
80229;SDS011;69540;42.136;24.742;2023-08-31T03:32:01;3.10;;;2.78;;
80229;SDS011;69540;42.136;24.742;2023-08-31T03:34:30;5.40;;;2.78;;
80229;SDS011;69540;42.136;24.742;2023-08-31T03:36:57;3.92;;;2.85;;
80229;SDS011;69540;42.136;24.742;2023-08-31T03:39:23;4.18;;;2.70;;
80229;SDS011;69540;42.136;24.742;2023-08-31T03:41:50;3.15;;;2.63;;
80229;SDS011;69540;42.136;24.742;2023-08-31T03:44:16;3.53;;;2.60;;
80229;SDS011;69540;42.136;24.742;2023-08-31T03:46:42;3.97;;;2.50;;
80229;SDS011;69540;42.136;24.742;2023-08-31T03:49:08;3.80;;;2.50;;
80229;SDS011;69540;42.136;24.742;2023-08-31T03:51:34;4.25;;;2.88;;
80229;SDS011;69540;42.136;24.742;2023-08-31T03:54:00;4.97;;;2.80;;
80229;SDS011;69540;42.136;24.742;2023-08-31T03:56:26;2.85;;;2.55;;
80229;SDS011;69540;42.136;24.742;2023-08-31T03:58:52;2.95;;;2.65;;
80229;SDS011;69540;42.136;24.742;2023-08-31T04:01:18;4.68;;;2.53;;
80229;SDS011;69540;42.136;24.742;2023-08-31T04:03:43;4.20;;;2.78;;
80229;SDS011;69540;42.136;24.742;2023-08-31T04:06:09;3.88;;;2.70;;
80229;SDS011;69540;42.136;24.742;2023-08-31T04:08:35;5.03;;;2.70;;
80229;SDS011;69540;42.136;24.742;2023-08-31T04:11:00;3.63;;;2.63;;
80229;SDS011;69540;42.136;24.742;2023-08-31T04:13:26;4.20;;;2.85;;
80229;SDS011;69540;42.136;24.742;2023-08-31T04:15:52;4.80;;;2.85;;
80229;SDS011;69540;42.136;24.742;2023-08-31T04:18:18;3.85;;;2.75;;
80229;SDS011;69540;42.136;24.742;2023-08-31T04:20:51;2.65;;;2.30;;
80229;SDS011;69540;42.136;24.742;2023-08-31T04:23:17;5.18;;;2.80;;
80229;SDS011;69540;42.136;24.742;2023-08-31T04:25:46;5.97;;;3.00;;
80229;SDS011;69540;42.136;24.742;2023-08-31T04:28:13;3.95;;;2.80;;
80229;SDS011;69540;42.136;24.742;2023-08-31T04:30:39;5.57;;;2.92;;
80229;SDS011;69540;42.136;24.742;2023-08-31T04:33:05;4.65;;;3.00;;
80229;SDS011;69540;42.136;24.742;2023-08-31T04:35:31;4.07;;;3.05;;
80229;SDS011;69540;42.136;24.742;2023-08-31T04:37:58;4.00;;;3.35;;
80229;SDS011;69540;42.136;24.742;2023-08-31T04:40:23;5.45;;;2.97;;
80229;SDS011;69540;42.136;24.742;2023-08-31T04:42:49;3.78;;;2.72;;
80229;SDS011;69540;42.136;24.742;2023-08-31T04:45:16;3.80;;;2.72;;
80229;SDS011;69540;42.136;24.742;2023-08-31T04:47:41;3.60;;;2.97;;
80229;SDS011;69540;42.136;24.742;2023-08-31T04:50:07;4.28;;;3.20;;
80229;SDS011;69540;42.136;24.742;2023-08-31T04:52:33;3.88;;;3.08;;
80229;SDS011;69540;42.136;24.742;2023-08-31T04:55:02;5.35;;;3.08;;
80229;SDS011;69540;42.136;24.742;2023-08-31T04:57:28;6.28;;;3.05;;
80229;SDS011;69540;42.136;24.742;2023-08-31T04:59:54;3.67;;;2.83;;
80229;SDS011;69540;42.136;24.742;2023-08-31T05:02:20;4.63;;;2.75;;
80229;SDS011;69540;42.136;24.742;2023-08-31T05:04:45;3.17;;;2.55;;
80229;SDS011;69540;42.136;24.742;2023-08-31T05:07:11;4.18;;;3.10;;
80229;SDS011;69540;42.136;24.742;2023-08-31T05:09:37;4.85;;;2.92;;
80229;SDS011;69540;42.136;24.742;2023-08-31T05:12:02;5.50;;;3.10;;
80229;SDS011;69540;42.136;24.742;2023-08-31T05:14:29;5.15;;;2.90;;
80229;SDS011;69540;42.136;24.742;2023-08-31T05:16:55;5.50;;;3.00;;
80229;SDS011;69540;42.136;24.742;2023-08-31T05:19:20;4.95;;;2.80;;
80229;SDS011;69540;42.136;24.742;2023-08-31T05:21:46;5.00;;;2.85;;
80229;SDS011;69540;42.136;24.742;2023-08-31T05:24:12;6.80;;;3.05;;
80229;SDS011;69540;42.136;24.742;2023-08-31T05:26:38;3.65;;;3.00;;
80229;SDS011;69540;42.136;24.742;2023-08-31T05:29:04;4.03;;;3.10;;
80229;SDS011;69540;42.136;24.742;2023-08-31T05:31:30;5.15;;;2.95;;
80229;SDS011;69540;42.136;24.742;2023-08-31T05:33:56;7.70;;;3.35;;
80229;SDS011;69540;42.136;24.742;2023-08-31T05:36:22;5.53;;;2.80;;
80229;SDS011;69540;42.136;24.742;2023-08-31T05:38:48;3.88;;;2.85;;
80229;SDS011;69540;42.136;24.742;2023-08-31T05:41:15;5.15;;;2.92;;
80229;SDS011;69540;42.136;24.742;2023-08-31T05:43:41;3.60;;;2.80;;
80229;SDS011;69540;42.136;24.742;2023-08-31T05:46:07;4.10;;;3.00;;
80229;SDS011;69540;42.136;24.742;2023-08-31T05:48:33;9.13;;;3.15;;
80229;SDS011;69540;42.136;24.742;2023-08-31T05:51:00;4.97;;;2.50;;
80229;SDS011;69540;42.136;24.742;2023-08-31T05:53:25;5.05;;;2.90;;
80229;SDS011;69540;42.136;24.742;2023-08-31T05:55:54;3.83;;;2.58;;
80229;SDS011;69540;42.136;24.742;2023-08-31T05:58:20;3.08;;;2.70;;
80229;SDS011;69540;42.136;24.742;2023-08-31T06:00:45;4.93;;;2.50;;
80229;SDS011;69540;42.136;24.742;2023-08-31T06:03:11;3.35;;;2.47;;
80229;SDS011;69540;42.136;24.742;2023-08-31T06:05:36;4.20;;;2.88;;
80229;SDS011;69540;42.136;24.742;2023-08-31T06:08:03;4.53;;;2.90;;
80229;SDS011;69540;42.136;24.742;2023-08-31T06:10:29;5.90;;;3.03;;
80229;SDS011;69540;42.136;24.742;2023-08-31T06:12:54;3.78;;;2.70;;
80229;SDS011;69540;42.136;24.742;2023-08-31T06:15:20;4.22;;;2.50;;
80229;SDS011;69540;42.136;24.742;2023-08-31T06:17:46;3.08;;;2.50;;
80229;SDS011;69540;42.136;24.742;2023-08-31T06:20:11;5.75;;;2.75;;
80229;SDS011;69540;42.136;24.742;2023-08-31T06:22:37;4.30;;;2.58;;
80229;SDS011;69540;42.136;24.742;2023-08-31T06:25:03;5.22;;;2.70;;
80229;SDS011;69540;42.136;24.742;2023-08-31T06:27:30;2.80;;;2.60;;
80229;SDS011;69540;42.136;24.742;2023-08-31T06:29:56;5.95;;;2.65;;
80229;SDS011;69540;42.136;24.742;2023-08-31T06:32:21;4.80;;;2.70;;
80229;SDS011;69540;42.136;24.742;2023-08-31T06:34:48;2.53;;;2.10;;
80229;SDS011;69540;42.136;24.742;2023-08-31T06:37:13;3.60;;;2.67;;
80229;SDS011;69540;42.136;24.742;2023-08-31T06:39:39;3.67;;;2.45;;
80229;SDS011;69540;42.136;24.742;2023-08-31T06:42:06;3.00;;;2.65;;
80229;SDS011;69540;42.136;24.742;2023-08-31T06:44:31;3.35;;;2.60;;
80229;SDS011;69540;42.136;24.742;2023-08-31T06:46:57;2.83;;;2.30;;
80229;SDS011;69540;42.136;24.742;2023-08-31T06:49:22;3.75;;;2.65;;
80229;SDS011;69540;42.136;24.742;2023-08-31T06:51:48;2.92;;;2.38;;
80229;SDS011;69540;42.136;24.742;2023-08-31T06:54:14;2.60;;;2.20;;
80229;SDS011;69540;42.136;24.742;2023-08-31T06:56:40;2.45;;;2.25;;
80229;SDS011;69540;42.136;24.742;2023-08-31T06:59:06;2.75;;;2.33;;
80229;SDS011;69540;42.136;24.742;2023-08-31T07:01:32;3.22;;;2.40;;
80229;SDS011;69540;42.136;24.742;2023-08-31T07:04:00;3.30;;;2.50;;
80229;SDS011;69540;42.136;24.742;2023-08-31T07:06:26;3.30;;;2.25;;
80229;SDS011;69540;42.136;24.742;2023-08-31T07:08:52;3.10;;;2.58;;
80229;SDS011;69540;42.136;24.742;2023-08-31T07:11:18;3.40;;;2.28;;
80229;SDS011;69540;42.136;24.742;2023-08-31T07:13:45;2.53;;;2.33;;
80229;SDS011;69540;42.136;24.742;2023-08-31T07:16:10;2.83;;;2.33;;
80229;SDS011;69540;42.136;24.742;2023-08-31T07:18:36;2.60;;;2.20;;
80229;SDS011;69540;42.136;24.742;2023-08-31T07:21:02;2.42;;;2.20;;
80229;SDS011;69540;42.136;24.742;2023-08-31T07:23:31;2.70;;;2.20;;
80229;SDS011;69540;42.136;24.742;2023-08-31T07:25:57;7.40;;;2.65;;
80229;SDS011;69540;42.136;24.742;2023-08-31T07:28:24;2.70;;;2.45;;
80229;SDS011;69540;42.136;24.742;2023-08-31T07:30:59;3.05;;;2.40;;
80229;SDS011;69540;42.136;24.742;2023-08-31T07:33:26;3.10;;;2.33;;
80229;SDS011;69540;42.136;24.742;2023-08-31T07:35:52;2.97;;;2.20;;
80229;SDS011;69540;42.136;24.742;2023-08-31T07:38:18;3.35;;;2.50;;
80229;SDS011;69540;42.136;24.742;2023-08-31T07:40:43;2.45;;;1.98;;
80229;SDS011;69540;42.136;24.742;2023-08-31T07:43:09;2.33;;;2.10;;
80229;SDS011;69540;42.136;24.742;2023-08-31T07:45:34;5.13;;;2.33;;
80229;SDS011;69540;42.136;24.742;2023-08-31T07:48:00;2.30;;;2.08;;
80229;SDS011;69540;42.136;24.742;2023-08-31T07:50:26;4.70;;;2.40;;
80229;SDS011;69540;42.136;24.742;2023-08-31T07:52:52;2.78;;;2.25;;
80229;SDS011;69540;42.136;24.742;2023-08-31T07:55:17;4.10;;;2.47;;
80229;SDS011;69540;42.136;24.742;2023-08-31T07:57:43;2.40;;;2.20;;
80229;SDS011;69540;42.136;24.742;2023-08-31T08:00:09;2.53;;;2.03;;
80229;SDS011;69540;42.136;24.742;2023-08-31T08:02:35;2.53;;;2.33;;
80229;SDS011;69540;42.136;24.742;2023-08-31T08:05:00;2.72;;;1.83;;
80229;SDS011;69540;42.136;24.742;2023-08-31T08:07:26;3.67;;;1.73;;
80229;SDS011;69540;42.136;24.742;2023-08-31T08:09:52;2.30;;;2.10;;
80229;SDS011;69540;42.136;24.742;2023-08-31T08:12:17;2.95;;;2.08;;
80229;SDS011;69540;42.136;24.742;2023-08-31T08:14:43;2.92;;;1.88;;
80229;SDS011;69540;42.136;24.742;2023-08-31T08:17:09;2.53;;;2.22;;
80229;SDS011;69540;42.136;24.742;2023-08-31T08:19:34;4.07;;;2.00;;
80229;SDS011;69540;42.136;24.742;2023-08-31T08:22:00;2.00;;;1.85;;
80229;SDS011;69540;42.136;24.742;2023-08-31T08:24:25;3.22;;;2.10;;
80229;SDS011;69540;42.136;24.742;2023-08-31T08:26:51;2.40;;;2.20;;
80229;SDS011;69540;42.136;24.742;2023-08-31T08:29:17;3.75;;;2.10;;
80229;SDS011;69540;42.136;24.742;2023-08-31T08:31:42;3.10;;;1.92;;
80229;SDS011;69540;42.136;24.742;2023-08-31T08:34:08;2.33;;;1.90;;
80229;SDS011;69540;42.136;24.742;2023-08-31T08:36:33;2.28;;;2.08;;
80229;SDS011;69540;42.136;24.742;2023-08-31T08:38:59;2.20;;;2.00;;
80229;SDS011;69540;42.136;24.742;2023-08-31T08:41:25;2.83;;;1.83;;
80229;SDS011;69540;42.136;24.742;2023-08-31T08:43:54;2.25;;;1.88;;
80229;SDS011;69540;42.136;24.742;2023-08-31T08:46:21;1.77;;;1.67;;
80229;SDS011;69540;42.136;24.742;2023-08-31T08:48:48;3.28;;;1.90;;
80229;SDS011;69540;42.136;24.742;2023-08-31T08:51:14;2.10;;;2.00;;
80229;SDS011;69540;42.136;24.742;2023-08-31T08:53:41;2.05;;;1.88;;
80229;SDS011;69540;42.136;24.742;2023-08-31T08:56:08;2.65;;;2.13;;
80229;SDS011;69540;42.136;24.742;2023-08-31T08:58:33;2.20;;;2.00;;
80229;SDS011;69540;42.136;24.742;2023-08-31T09:00:59;2.00;;;1.85;;
80229;SDS011;69540;42.136;24.742;2023-08-31T09:03:26;1.65;;;1.52;;
80229;SDS011;69540;42.136;24.742;2023-08-31T09:05:51;2.00;;;1.80;;
80229;SDS011;69540;42.136;24.742;2023-08-31T09:08:17;1.75;;;1.50;;
80229;SDS011;69540;42.136;24.742;2023-08-31T09:10:49;2.67;;;1.75;;
80229;SDS011;69540;42.136;24.742;2023-08-31T09:13:15;1.88;;;1.77;;
80229;SDS011;69540;42.136;24.742;2023-08-31T09:15:43;2.25;;;1.92;;
80229;SDS011;69540;42.136;24.742;2023-08-31T09:18:26;2.75;;;1.67;;
80229;SDS011;69540;42.136;24.742;2023-08-31T09:20:56;1.73;;;1.63;;
80229;SDS011;69540;42.136;24.742;2023-08-31T09:23:22;2.30;;;2.10;;
80229;SDS011;69540;42.136;24.742;2023-08-31T09:25:49;2.13;;;1.80;;
80229;SDS011;69540;42.136;24.742;2023-08-31T09:28:24;2.90;;;1.63;;
80229;SDS011;69540;42.136;24.742;2023-08-31T09:30:52;2.33;;;1.70;;
80229;SDS011;69540;42.136;24.742;2023-08-31T09:33:18;3.17;;;1.90;;
80229;SDS011;69540;42.136;24.742;2023-08-31T09:35:56;1.55;;;1.45;;
80229;SDS011;69540;42.136;24.742;2023-08-31T09:38:22;2.17;;;1.77;;
80229;SDS011;69540;42.136;24.742;2023-08-31T09:40:48;2.85;;;1.73;;
80229;SDS011;69540;42.136;24.742;2023-08-31T09:43:20;2.95;;;1.85;;
80229;SDS011;69540;42.136;24.742;2023-08-31T09:45:48;2.22;;;1.70;;
80229;SDS011;69540;42.136;24.742;2023-08-31T09:48:15;1.70;;;1.60;;
80229;SDS011;69540;42.136;24.742;2023-08-31T09:50:42;1.73;;;1.63;;
80229;SDS011;69540;42.136;24.742;2023-08-31T09:53:10;2.03;;;1.83;;
80229;SDS011;69540;42.136;24.742;2023-08-31T09:55:38;2.03;;;1.88;;
80229;SDS011;69540;42.136;24.742;2023-08-31T09:58:05;3.10;;;1.95;;
80229;SDS011;69540;42.136;24.742;2023-08-31T10:00:35;2.42;;;1.70;;
80229;SDS011;69540;42.136;24.742;2023-08-31T10:03:04;2.28;;;1.75;;
80229;SDS011;69540;42.136;24.742;2023-08-31T10:05:31;1.70;;;1.55;;
80229;SDS011;69540;42.136;24.742;2023-08-31T10:07:58;1.77;;;1.50;;
80229;SDS011;69540;42.136;24.742;2023-08-31T10:10:24;2.05;;;1.75;;
80229;SDS011;69540;42.136;24.742;2023-08-31T10:12:51;2.28;;;1.85;;
80229;SDS011;69540;42.136;24.742;2023-08-31T10:15:18;1.50;;;1.40;;
80229;SDS011;69540;42.136;24.742;2023-08-31T10:17:44;1.70;;;1.60;;
80229;SDS011;69540;42.136;24.742;2023-08-31T10:20:11;2.88;;;1.38;;
80229;SDS011;69540;42.136;24.742;2023-08-31T10:22:39;2.00;;;1.80;;
80229;SDS011;69540;42.136;24.742;2023-08-31T10:25:06;1.45;;;1.35;;
80229;SDS011;69540;42.136;24.742;2023-08-31T10:27:39;1.73;;;1.63;;
80229;SDS011;69540;42.136;24.742;2023-08-31T10:36:08;1.80;;;1.38;;
80229;SDS011;69540;42.136;24.742;2023-08-31T10:48:58;1.65;;;1.40;;
80229;SDS011;69540;42.136;24.742;2023-08-31T10:51:24;1.73;;;1.52;;
80229;SDS011;69540;42.136;24.742;2023-08-31T10:53:51;1.50;;;1.40;;
80229;SDS011;69540;42.136;24.742;2023-08-31T10:56:18;1.60;;;1.50;;
80229;SDS011;69540;42.136;24.742;2023-08-31T10:58:59;2.10;;;1.58;;
80229;SDS011;69540;42.136;24.742;2023-08-31T11:04:26;2.03;;;1.77;;
80229;SDS011;69540;42.136;24.742;2023-08-31T11:09:42;2.17;;;1.35;;
80229;SDS011;69540;42.136;24.742;2023-08-31T11:12:10;1.50;;;1.38;;
80229;SDS011;69540;42.136;24.742;2023-08-31T11:14:36;1.60;;;1.50;;
80229;SDS011;69540;42.136;24.742;2023-08-31T11:17:02;2.65;;;1.75;;
80229;SDS011;69540;42.136;24.742;2023-08-31T11:19:30;2.17;;;1.67;;
80229;SDS011;69540;42.136;24.742;2023-08-31T11:22:02;2.55;;;1.63;;
80229;SDS011;69540;42.136;24.742;2023-08-31T11:24:32;2.00;;;1.80;;
80229;SDS011;69540;42.136;24.742;2023-08-31T11:26:58;2.95;;;2.00;;
80229;SDS011;69540;42.136;24.742;2023-08-31T11:29:24;3.38;;;2.05;;
80229;SDS011;69540;42.136;24.742;2023-08-31T11:31:50;2.30;;;1.83;;
80229;SDS011;69540;42.136;24.742;2023-08-31T11:34:16;5.13;;;1.95;;
80229;SDS011;69540;42.136;24.742;2023-08-31T11:36:44;2.55;;;1.95;;
80229;SDS011;69540;42.136;24.742;2023-08-31T11:39:11;3.78;;;1.90;;
80229;SDS011;69540;42.136;24.742;2023-08-31T11:41:37;2.97;;;2.15;;
80229;SDS011;69540;42.136;24.742;2023-08-31T11:44:09;3.55;;;1.80;;
80229;SDS011;69540;42.136;24.742;2023-08-31T11:46:41;2.65;;;1.60;;
80229;SDS011;69540;42.136;24.742;2023-08-31T11:49:08;2.85;;;1.63;;
80229;SDS011;69540;42.136;24.742;2023-08-31T11:51:34;2.50;;;2.00;;
80229;SDS011;69540;42.136;24.742;2023-08-31T11:54:01;3.88;;;1.95;;
80229;SDS011;69540;42.136;24.742;2023-08-31T11:56:27;2.20;;;1.95;;
80229;SDS011;69540;42.136;24.742;2023-08-31T11:59:09;2.30;;;2.00;;
80229;SDS011;69540;42.136;24.742;2023-08-31T12:01:40;2.35;;;1.58;;
80229;SDS011;69540;42.136;24.742;2023-08-31T12:04:21;1.85;;;1.73;;
80229;SDS011;69540;42.136;24.742;2023-08-31T12:06:49;1.85;;;1.75;;
80229;SDS011;69540;42.136;24.742;2023-08-31T12:09:16;1.95;;;1.63;;
80229;SDS011;69540;42.136;24.742;2023-08-31T12:11:42;3.30;;;1.90;;
80229;SDS011;69540;42.136;24.742;2023-08-31T12:14:18;2.00;;;1.80;;
80229;SDS011;69540;42.136;24.742;2023-08-31T12:16:50;3.67;;;1.70;;
80229;SDS011;69540;42.136;24.742;2023-08-31T12:19:16;2.60;;;1.95;;
80229;SDS011;69540;42.136;24.742;2023-08-31T12:21:43;2.53;;;1.55;;
80229;SDS011;69540;42.136;24.742;2023-08-31T12:24:10;2.33;;;2.03;;
80229;SDS011;69540;42.136;24.742;2023-08-31T12:26:36;1.98;;;1.73;;
80229;SDS011;69540;42.136;24.742;2023-08-31T12:29:02;1.98;;;1.88;;
80229;SDS011;69540;42.136;24.742;2023-08-31T12:31:31;2.42;;;1.90;;
80229;SDS011;69540;42.136;24.742;2023-08-31T12:33:58;1.52;;;1.42;;
80229;SDS011;69540;42.136;24.742;2023-08-31T12:36:25;2.85;;;1.60;;
80229;SDS011;69540;42.136;24.742;2023-08-31T12:38:50;1.63;;;1.50;;
80229;SDS011;69540;42.136;24.742;2023-08-31T12:41:17;2.90;;;1.80;;
80229;SDS011;69540;42.136;24.742;2023-08-31T12:43:43;2.67;;;1.80;;
80229;SDS011;69540;42.136;24.742;2023-08-31T12:46:08;2.58;;;1.77;;
80229;SDS011;69540;42.136;24.742;2023-08-31T12:48:34;1.83;;;1.63;;
80229;SDS011;69540;42.136;24.742;2023-08-31T12:51:00;3.10;;;1.95;;
80229;SDS011;69540;42.136;24.742;2023-08-31T12:53:26;1.52;;;1.40;;
80229;SDS011;69540;42.136;24.742;2023-08-31T12:55:52;2.25;;;1.80;;
80229;SDS011;69540;42.136;24.742;2023-08-31T12:58:19;2.83;;;1.90;;
80229;SDS011;69540;42.136;24.742;2023-08-31T13:00:46;2.35;;;1.60;;
80229;SDS011;69540;42.136;24.742;2023-08-31T13:03:14;1.65;;;1.55;;
80229;SDS011;69540;42.136;24.742;2023-08-31T13:05:40;2.00;;;1.42;;
80229;SDS011;69540;42.136;24.742;2023-08-31T13:08:06;2.50;;;1.60;;
80229;SDS011;69540;42.136;24.742;2023-08-31T13:10:32;1.83;;;1.73;;
80229;SDS011;69540;42.136;24.742;2023-08-31T13:12:59;1.30;;;1.20;;
80229;SDS011;69540;42.136;24.742;2023-08-31T13:15:25;1.88;;;1.70;;
80229;SDS011;69540;42.136;24.742;2023-08-31T13:17:51;1.85;;;1.60;;
80229;SDS011;69540;42.136;24.742;2023-08-31T13:20:17;1.77;;;1.45;;
80229;SDS011;69540;42.136;24.742;2023-08-31T13:22:42;2.55;;;1.60;;
80229;SDS011;69540;42.136;24.742;2023-08-31T13:25:08;2.03;;;1.70;;
80229;SDS011;69540;42.136;24.742;2023-08-31T13:27:36;3.78;;;1.60;;
80229;SDS011;69540;42.136;24.742;2023-08-31T13:30:02;5.20;;;2.08;;
80229;SDS011;69540;42.136;24.742;2023-08-31T13:32:31;2.75;;;1.55;;
80229;SDS011;69540;42.136;24.742;2023-08-31T13:34:57;2.97;;;1.65;;
80229;SDS011;69540;42.136;24.742;2023-08-31T13:37:23;1.85;;;1.40;;
80229;SDS011;69540;42.136;24.742;2023-08-31T13:39:49;2.35;;;1.60;;
80229;SDS011;69540;42.136;24.742;2023-08-31T13:42:17;1.90;;;1.52;;
80229;SDS011;69540;42.136;24.742;2023-08-31T13:44:42;2.03;;;1.70;;
80229;SDS011;69540;42.136;24.742;2023-08-31T13:47:08;3.15;;;1.58;;
80229;SDS011;69540;42.136;24.742;2023-08-31T13:49:35;1.75;;;1.58;;
80229;SDS011;69540;42.136;24.742;2023-08-31T13:52:00;1.90;;;1.70;;
80229;SDS011;69540;42.136;24.742;2023-08-31T13:54:26;2.20;;;1.75;;
80229;SDS011;69540;42.136;24.742;2023-08-31T13:56:52;1.85;;;1.60;;
80229;SDS011;69540;42.136;24.742;2023-08-31T13:59:17;1.98;;;1.50;;
80229;SDS011;69540;42.136;24.742;2023-08-31T14:01:43;1.65;;;1.55;;
80229;SDS011;69540;42.136;24.742;2023-08-31T14:04:09;2.38;;;1.90;;
80229;SDS011;69540;42.136;24.742;2023-08-31T14:06:34;2.45;;;1.50;;
80229;SDS011;69540;42.136;24.742;2023-08-31T14:09:01;1.77;;;1.40;;
80229;SDS011;69540;42.136;24.742;2023-08-31T14:11:27;1.58;;;1.20;;
80229;SDS011;69540;42.136;24.742;2023-08-31T14:14:00;1.65;;;1.20;;
80229;SDS011;69540;42.136;24.742;2023-08-31T14:16:29;1.90;;;1.60;;
80229;SDS011;69540;42.136;24.742;2023-08-31T14:18:54;1.50;;;1.40;;
80229;SDS011;69540;42.136;24.742;2023-08-31T14:21:20;2.97;;;1.55;;
80229;SDS011;69540;42.136;24.742;2023-08-31T14:23:46;2.58;;;1.60;;
80229;SDS011;69540;42.136;24.742;2023-08-31T14:26:11;2.67;;;1.48;;
80229;SDS011;69540;42.136;24.742;2023-08-31T14:28:37;1.85;;;1.40;;
80229;SDS011;69540;42.136;24.742;2023-08-31T14:31:06;1.67;;;1.58;;
80229;SDS011;69540;42.136;24.742;2023-08-31T14:33:32;2.83;;;1.60;;
80229;SDS011;69540;42.136;24.742;2023-08-31T14:35:58;2.42;;;1.70;;
80229;SDS011;69540;42.136;24.742;2023-08-31T14:38:24;1.63;;;1.27;;
80229;SDS011;69540;42.136;24.742;2023-08-31T14:40:50;1.52;;;1.42;;
80229;SDS011;69540;42.136;24.742;2023-08-31T14:43:16;1.80;;;1.38;;
80229;SDS011;69540;42.136;24.742;2023-08-31T14:45:42;3.83;;;1.52;;
80229;SDS011;69540;42.136;24.742;2023-08-31T14:48:08;8.02;;;1.85;;
80229;SDS011;69540;42.136;24.742;2023-08-31T14:50:33;1.95;;;1.50;;
80229;SDS011;69540;42.136;24.742;2023-08-31T14:52:59;1.48;;;1.38;;
80229;SDS011;69540;42.136;24.742;2023-08-31T14:55:25;1.60;;;1.50;;
80229;SDS011;69540;42.136;24.742;2023-08-31T14:57:50;1.52;;;1.23;;
80229;SDS011;69540;42.136;24.742;2023-08-31T15:00:16;1.83;;;1.30;;
80229;SDS011;69540;42.136;24.742;2023-08-31T15:02:42;3.40;;;1.42;;
80229;SDS011;69540;42.136;24.742;2023-08-31T15:05:08;1.75;;;1.60;;